Station: ELLX - 02/03/2024 15:50Z (il y a 26 minutes)
ELLX 021550Z 15010KT 120V190 9999 BKN035 11/04 Q1000 NOSIG
Vent du 150º - 10 kt (vent de direction variable de 120º à 190º)
Visibilité > 10 km
Ciel 75% couvert à 3500 pieds
Température: +11ºC - Point de rosée: +04ºC - QNH: 1000 hPa
Pas de changement significatif prévu dans les 2 heures qui suivent l'observation